Volcan De Tauce — EAGW — position and weather

sailwx.info

Track history (hours):
 
Tides and Currents Weather Stations Pressure Air Temp Water Temp Dewpoint Dewpoint Depression Visibility Wind Speed Wind Dir Waves Ship Positions

Volcan De Tauce

Last reported at 2016-Jun-30 06:14 UTC. Time now 2016-Jun-30 08:47 UTC.
Position N 28°27' W 013°50'.

Length 120 m; draft 4.9 m.

Type: Ship (hazmat cat A). MMSI: 224761000.

Date/timePositionNaut miles runAvg speedWind from/ knotsBaromVisibWave heightAir tempDewpointWater temp
2016-Jun-30 06:14N 28°27' W 013°50'1214.1
2016-Jun-30 05:25N 28°16' W 013°53'1314.9
2016-Jun-30 04:34N 28°08' W 014°04'1615.5
2016-Jun-30 03:34N 28°01' W 014°20'1515.3
2016-Jun-30 02:34N 28°02' W 014°37'1514.7
2016-Jun-30 01:34N 28°03' W 014°53'1515.0
2016-Jun-30 00:34N 28°06' W 015°10'1313.1
2016-Jun-29 23:33N 28°08' W 015°25'0 0.0
2016-Jun-29 22:33N 28°08' W 015°25'0 0.0
2016-Jun-29 21:31N 28°08' W 015°25'0 0.0
2016-Jun-29 20:31N 28°08' W 015°25'0 0.0
2016-Jun-29 19:31N 28°08' W 015°25'0 0.0
2016-Jun-29 18:31N 28°08' W 015°25'0 0.0
2016-Jun-29 17:31N 28°08' W 015°25'0 0.1
2016-Jun-29 16:34N 28°08' W 015°25'1413.6
2016-Jun-29 15:33N 28°07' W 015°09'1616.0
2016-Jun-29 14:33N 28°04' W 014°52'1616.2
2016-Jun-29 13:33N 28°02' W 014°33'1515.5
2016-Jun-29 12:33N 28°03' W 014°16'3115.5
2016-Jun-29 10:33N 28°23' W 013°49'4 0.7
2016-Jun-29 05:25N 28°27' W 013°50'1414.5
2016-Jun-29 04:26N 28°13' W 013°55'1415.8
2016-Jun-29 03:33N 28°06' W 014°08'1615.6
2016-Jun-29 02:33N 28°01' W 014°25'1615.3
2016-Jun-29 01:31N 28°03' W 014°42'1414.7
2016-Jun-29 00:33N 28°04' W 014°58'1515.4
2016-Jun-28 23:33N 28°06' W 015°16'8 8.4
2016-Jun-28 22:33N 28°08' W 015°25'0 0.0
2016-Jun-28 21:33N 28°08' W 015°25'0 0.0
2016-Jun-28 20:32N 28°08' W 015°25'0 0.0
2016-Jun-28 19:32N 28°08' W 015°25'0 0.0
2016-Jun-28 18:33N 28°08' W 015°25'0 0.0
2016-Jun-28 17:32N 28°08' W 015°25'0 0.0
2016-Jun-28 16:33N 28°08' W 015°25'1312.6
2016-Jun-28 15:33N 28°06' W 015°11'1716.5
2016-Jun-28 14:33N 28°04' W 014°52'1716.6
2016-Jun-28 13:33N 28°02' W 014°34'1615.5
2016-Jun-28 12:31N 28°03' W 014°15'1616.1
2016-Jun-28 11:33N 28°11' W 013°60'1816.0
2016-Jun-28 10:25N 28°26' W 013°49'1 0.3
2016-Jun-28 06:04N 28°27' W 013°50'2214.3
2016-Jun-28 04:33N 28°09' W 014°03'3115.0
2016-Jun-28 02:28N 28°02' W 014°37'1314.7
2016-Jun-28 01:34N 28°04' W 014°52'1515.3
2016-Jun-28 00:34N 28°05' W 015°10'1413.6
2016-Jun-27 23:33N 28°08' W 015°25'0 0.3
2016-Jun-27 22:33N 28°08' W 015°25'0 0.0
2016-Jun-27 21:31N 28°08' W 015°25'0 0.0
2016-Jun-27 20:31N 28°08' W 015°25'0 0.0
2016-Jun-27 19:31N 28°08' W 015°25'0 0.0
2016-Jun-27 18:31N 28°08' W 015°25'0 0.0
2016-Jun-27 17:31N 28°08' W 015°25'0 0.0
2016-Jun-27 16:31N 28°08' W 015°25'0 0.0
2016-Jun-27 15:31N 28°08' W 015°25'0 0.0
2016-Jun-27 14:31N 28°08' W 015°25'0 0.0
2016-Jun-27 13:31N 28°08' W 015°25'0 0.0
2016-Jun-27 12:31N 28°08' W 015°25'0 0.0
2016-Jun-27 11:31N 28°08' W 015°25'0 0.0
2016-Jun-27 10:31N 28°08' W 015°25'0 0.0
2016-Jun-27 09:31N 28°08' W 015°25'0 0.0
2016-Jun-27 08:31N 28°08' W 015°25'0 0.0
2016-Jun-27 07:31N 28°08' W 015°25'0 0.1
2016-Jun-27 06:32N 28°08' W 015°25'0 0.0
2016-Jun-27 05:32N 28°08' W 015°25'0 0.0
2016-Jun-27 04:32N 28°08' W 015°25'0 0.0
2016-Jun-27 03:32N 28°08' W 015°25'0 0.0
2016-Jun-27 02:32N 28°08' W 015°25'0 0.0
2016-Jun-27 01:32N 28°08' W 015°25'0 0.0
2016-Jun-27 00:32N 28°08' W 015°25'0 0.0
2016-Jun-26 23:32N 28°08' W 015°25'0 0.0
2016-Jun-26 22:32N 28°08' W 015°25'0 0.0
2016-Jun-26 21:32N 28°08' W 015°25'0 0.0
2016-Jun-26 20:32N 28°08' W 015°25'0 0.0
2016-Jun-26 19:32N 28°08' W 015°25'0 0.0
2016-Jun-26 18:32N 28°08' W 015°25'0 0.0
2016-Jun-26 17:32N 28°08' W 015°25'0 0.0
2016-Jun-26 16:32N 28°08' W 015°25'0 0.0
2016-Jun-26 15:32N 28°08' W 015°25'0 0.0
2016-Jun-26 14:32N 28°08' W 015°25'0 0.0
2016-Jun-26 13:32N 28°08' W 015°25'0 0.0
2016-Jun-26 12:32N 28°08' W 015°25'0 0.0
2016-Jun-26 11:32N 28°08' W 015°25'0 0.0
2016-Jun-26 10:32N 28°08' W 015°25'0 0.0
2016-Jun-26 09:32N 28°08' W 015°25'0 0.0
2016-Jun-26 08:32N 28°08' W 015°25'0 0.0
2016-Jun-26 07:32N 28°08' W 015°25'0 0.0
2016-Jun-26 06:32N 28°08' W 015°25'0 0.0
2016-Jun-26 05:32N 28°08' W 015°25'0 0.0
2016-Jun-26 04:32N 28°08' W 015°25'0 0.0
2016-Jun-26 03:32N 28°08' W 015°25'0 0.0
2016-Jun-26 02:32N 28°08' W 015°25'0 0.0
2016-Jun-26 01:32N 28°08' W 015°25'0 0.0
2016-Jun-26 00:32N 28°08' W 015°25'0 0.0
2016-Jun-25 23:32N 28°08' W 015°25'0 0.0
2016-Jun-25 22:32N 28°08' W 015°25'0 0.0
2016-Jun-25 21:32N 28°08' W 015°25'0 0.0
2016-Jun-25 20:32N 28°08' W 015°25'0 0.0
2016-Jun-25 19:32N 28°08' W 015°25'0 0.0
2016-Jun-25 18:32N 28°08' W 015°25'0 0.0
2016-Jun-25 17:32N 28°08' W 015°25'0 0.0
2016-Jun-25 16:33N 28°08' W 015°25'8614.2
2016-Jun-25 10:31N 28°24' W 013°49'6 1.4
2016-Jun-25 06:20N 28°30' W 013°51'4 4.6
2016-Jun-25 05:33N 28°27' W 013°49'1514.5
2016-Jun-25 04:33N 28°13' W 013°55'1615.8
2016-Jun-25 03:33N 28°05' W 014°10'4414.6
2016-Jun-25 00:31N 28°04' W 015°01'1515.4
2016-Jun-24 23:33N 28°07' W 015°17'7 6.9
2016-Jun-24 22:34N 28°08' W 015°25'0 0.0
2016-Jun-24 21:30N 28°08' W 015°25'0 0.0
2016-Jun-24 20:33N 28°08' W 015°25'0 0.0
2016-Jun-24 19:33N 28°08' W 015°25'0 0.0
2016-Jun-24 18:33N 28°08' W 015°25'0 0.0
2016-Jun-24 17:33N 28°08' W 015°25'0 0.2
2016-Jun-24 16:34N 28°08' W 015°25'1413.7
2016-Jun-24 15:33N 28°06' W 015°09'8 0.5
2016-Jun-23 23:33N 28°06' W 015°18'6 6.2
2016-Jun-23 22:34N 28°08' W 015°25'0 0.0
2016-Jun-23 21:33N 28°08' W 015°25'0 0.0
2016-Jun-23 20:27N 28°08' W 015°25'0 0.0
2016-Jun-23 19:33N 28°08' W 015°25'0 0.0
2016-Jun-23 18:33N 28°08' W 015°25'0 0.0
2016-Jun-23 17:33N 28°08' W 015°25'1 1.2
2016-Jun-23 16:34N 28°07' W 015°24'1615.7
2016-Jun-23 15:33N 28°05' W 015°07'56 5.6
2016-Jun-23 05:31N 28°09' W 014°03'1615.7
2016-Jun-23 04:31N 28°01' W 014°18'1915.2
2016-Jun-23 03:15N 28°02' W 014°40'1014.8
2016-Jun-23 02:33N 28°03' W 014°52'1515.0
2016-Jun-23 01:33N 28°05' W 015°09'1414.3
2016-Jun-23 00:33N 28°08' W 015°24'1 0.7
2016-Jun-22 23:33N 28°08' W 015°25'0 0.0
2016-Jun-22 22:33N 28°08' W 015°25'0 0.0
2016-Jun-22 21:33N 28°08' W 015°25'0 0.0
2016-Jun-22 20:33N 28°08' W 015°25'0 0.0
2016-Jun-22 19:33N 28°08' W 015°25'0 0.0
2016-Jun-22 18:30N 28°08' W 015°25'0 0.0
2016-Jun-22 17:33N 28°08' W 015°25'0 0.0
2016-Jun-22 16:33N 28°08' W 015°25'1312.9
2016-Jun-22 15:33N 28°06' W 015°10'1615.9
2016-Jun-22 14:33N 28°04' W 014°53'1616.2
2016-Jun-22 13:33N 28°02' W 014°34'1615.9
2016-Jun-22 12:32N 28°03' W 014°16'24 3.0
2016-Jun-22 04:31N 28°15' W 013°53'1515.2
2016-Jun-22 03:33N 28°07' W 014°07'1914.9
2016-Jun-22 02:16N 28°01' W 014°28'1014.7
2016-Jun-22 01:33N 28°02' W 014°40'1515.2
2016-Jun-22 00:33N 28°04' W 014°57'1515.2
2016-Jun-21 23:33N 28°06' W 015°14'1010.1
2016-Jun-21 22:34N 28°08' W 015°25'0 0.0
2016-Jun-21 21:31N 28°08' W 015°25'0 0.0
2016-Jun-21 20:31N 28°08' W 015°25'0 0.0
2016-Jun-21 19:31N 28°08' W 015°25'0 0.0
2016-Jun-21 18:31N 28°08' W 015°25'0 0.0
2016-Jun-21 17:31N 28°08' W 015°25'1 1.2
2016-Jun-21 16:34N 28°07' W 015°24'1515.4
2016-Jun-21 15:33N 28°05' W 015°07'1615.8
2016-Jun-21 14:33N 28°04' W 014°49'1616.4
2016-Jun-21 13:33N 28°02' W 014°31'1615.8
2016-Jun-21 12:33N 28°04' W 014°13'1616.1
2016-Jun-21 11:33N 28°12' W 013°57'1615.5
2016-Jun-21 10:33N 28°26' W 013°50'4 1.9
2016-Jun-21 08:31N 28°30' W 013°51'21 5.4
2016-Jun-21 04:33N 28°10' W 014°01'1515.5
2016-Jun-21 03:33N 28°03' W 014°16'1814.7
2016-Jun-21 02:21N 28°02' W 014°36'1215.2
2016-Jun-21 01:33N 28°03' W 014°50'1515.1
2016-Jun-21 00:33N 28°05' W 015°07'1514.8
2016-Jun-20 23:33N 28°07' W 015°24'2 1.6
2016-Jun-20 22:33N 28°08' W 015°25'0 0.0
2016-Jun-20 21:33N 28°08' W 015°25'0 0.0
2016-Jun-20 20:24N 28°08' W 015°25'0 0.0
2016-Jun-20 19:33N 28°08' W 015°25'0 0.0
2016-Jun-20 18:27N 28°08' W 015°25'0 0.0
2016-Jun-20 17:27N 28°08' W 015°25'0 0.0
2016-Jun-20 16:27N 28°08' W 015°25'0 0.0
2016-Jun-20 15:30N 28°08' W 015°25'0 0.0
2016-Jun-20 14:30N 28°08' W 015°25'0 0.0
2016-Jun-20 13:30N 28°08' W 015°25'0 0.0
2016-Jun-20 12:33N 28°08' W 015°25'0 0.0
2016-Jun-20 11:33N 28°08' W 015°25'0 0.0
2016-Jun-20 10:31N 28°08' W 015°25'0 0.0
2016-Jun-20 09:22N 28°08' W 015°25'0 0.0
2016-Jun-20 08:31N 28°08' W 015°25'0 0.0
2016-Jun-20 07:25N 28°08' W 015°25'0 0.0
2016-Jun-20 06:25N 28°08' W 015°25'  
Track history (hours):
 
Tides and Currents Weather Stations Pressure Air Temp Water Temp Dewpoint Dewpoint Depression Visibility Wind Speed Wind Dir Waves Ship Positions

Volcan De Tauce

Last reported at 2016-Jun-30 06:14 UTC. Time now 2016-Jun-30 08:47 UTC.
Position N 28°27' W 013°50'.

Length 120 m; draft 4.9 m.

Type: Ship (hazmat cat A). MMSI: 224761000.

Date/timePositionNaut miles runAvg speedWind from/ knotsBaromVisibWave heightAir tempDewpointWater temp
2016-Jun-30 06:14N 28°27' W 013°50'1214.1
2016-Jun-30 05:25N 28°16' W 013°53'1314.9
2016-Jun-30 04:34N 28°08' W 014°04'1615.5
2016-Jun-30 03:34N 28°01' W 014°20'1515.3
2016-Jun-30 02:34N 28°02' W 014°37'1514.7
2016-Jun-30 01:34N 28°03' W 014°53'1515.0
2016-Jun-30 00:34N 28°06' W 015°10'1313.1
2016-Jun-29 23:33N 28°08' W 015°25'0 0.0
2016-Jun-29 22:33N 28°08' W 015°25'0 0.0
2016-Jun-29 21:31N 28°08' W 015°25'0 0.0
2016-Jun-29 20:31N 28°08' W 015°25'0 0.0
2016-Jun-29 19:31N 28°08' W 015°25'0 0.0
2016-Jun-29 18:31N 28°08' W 015°25'0 0.0
2016-Jun-29 17:31N 28°08' W 015°25'0 0.1
2016-Jun-29 16:34N 28°08' W 015°25'1413.6
2016-Jun-29 15:33N 28°07' W 015°09'1616.0
2016-Jun-29 14:33N 28°04' W 014°52'1616.2
2016-Jun-29 13:33N 28°02' W 014°33'1515.5
2016-Jun-29 12:33N 28°03' W 014°16'3115.5
2016-Jun-29 10:33N 28°23' W 013°49'4 0.7
2016-Jun-29 05:25N 28°27' W 013°50'1414.5
2016-Jun-29 04:26N 28°13' W 013°55'1415.8
2016-Jun-29 03:33N 28°06' W 014°08'1615.6
2016-Jun-29 02:33N 28°01' W 014°25'1615.3
2016-Jun-29 01:31N 28°03' W 014°42'1414.7
2016-Jun-29 00:33N 28°04' W 014°58'1515.4
2016-Jun-28 23:33N 28°06' W 015°16'8 8.4
2016-Jun-28 22:33N 28°08' W 015°25'0 0.0
2016-Jun-28 21:33N 28°08' W 015°25'0 0.0
2016-Jun-28 20:32N 28°08' W 015°25'0 0.0
2016-Jun-28 19:32N 28°08' W 015°25'0 0.0
2016-Jun-28 18:33N 28°08' W 015°25'0 0.0
2016-Jun-28 17:32N 28°08' W 015°25'0 0.0
2016-Jun-28 16:33N 28°08' W 015°25'1312.6
2016-Jun-28 15:33N 28°06' W 015°11'1716.5
2016-Jun-28 14:33N 28°04' W 014°52'1716.6
2016-Jun-28 13:33N 28°02' W 014°34'1615.5
2016-Jun-28 12:31N 28°03' W 014°15'1616.1
2016-Jun-28 11:33N 28°11' W 013°60'1816.0
2016-Jun-28 10:25N 28°26' W 013°49'1 0.3
2016-Jun-28 06:04N 28°27' W 013°50'2214.3
2016-Jun-28 04:33N 28°09' W 014°03'3115.0
2016-Jun-28 02:28N 28°02' W 014°37'1314.7
2016-Jun-28 01:34N 28°04' W 014°52'1515.3
2016-Jun-28 00:34N 28°05' W 015°10'1413.6
2016-Jun-27 23:33N 28°08' W 015°25'0 0.3
2016-Jun-27 22:33N 28°08' W 015°25'0 0.0
2016-Jun-27 21:31N 28°08' W 015°25'0 0.0
2016-Jun-27 20:31N 28°08' W 015°25'0 0.0
2016-Jun-27 19:31N 28°08' W 015°25'0 0.0
2016-Jun-27 18:31N 28°08' W 015°25'0 0.0
2016-Jun-27 17:31N 28°08' W 015°25'0 0.0
2016-Jun-27 16:31N 28°08' W 015°25'0 0.0
2016-Jun-27 15:31N 28°08' W 015°25'0 0.0
2016-Jun-27 14:31N 28°08' W 015°25'0 0.0
2016-Jun-27 13:31N 28°08' W 015°25'0 0.0
2016-Jun-27 12:31N 28°08' W 015°25'0 0.0
2016-Jun-27 11:31N 28°08' W 015°25'0 0.0
2016-Jun-27 10:31N 28°08' W 015°25'0 0.0
2016-Jun-27 09:31N 28°08' W 015°25'0 0.0
2016-Jun-27 08:31N 28°08' W 015°25'0 0.0
2016-Jun-27 07:31N 28°08' W 015°25'0 0.1
2016-Jun-27 06:32N 28°08' W 015°25'0 0.0
2016-Jun-27 05:32N 28°08' W 015°25'0 0.0
2016-Jun-27 04:32N 28°08' W 015°25'0 0.0
2016-Jun-27 03:32N 28°08' W 015°25'0 0.0
2016-Jun-27 02:32N 28°08' W 015°25'0 0.0
2016-Jun-27 01:32N 28°08' W 015°25'0 0.0
2016-Jun-27 00:32N 28°08' W 015°25'0 0.0
2016-Jun-26 23:32N 28°08' W 015°25'0 0.0
2016-Jun-26 22:32N 28°08' W 015°25'0 0.0
2016-Jun-26 21:32N 28°08' W 015°25'0 0.0
2016-Jun-26 20:32N 28°08' W 015°25'0 0.0
2016-Jun-26 19:32N 28°08' W 015°25'0 0.0
2016-Jun-26 18:32N 28°08' W 015°25'0 0.0
2016-Jun-26 17:32N 28°08' W 015°25'0 0.0
2016-Jun-26 16:32N 28°08' W 015°25'0 0.0
2016-Jun-26 15:32N 28°08' W 015°25'0 0.0
2016-Jun-26 14:32N 28°08' W 015°25'0 0.0
2016-Jun-26 13:32N 28°08' W 015°25'0 0.0
2016-Jun-26 12:32N 28°08' W 015°25'0 0.0
2016-Jun-26 11:32N 28°08' W 015°25'0 0.0
2016-Jun-26 10:32N 28°08' W 015°25'0 0.0
2016-Jun-26 09:32N 28°08' W 015°25'0 0.0
2016-Jun-26 08:32N 28°08' W 015°25'0 0.0
2016-Jun-26 07:32N 28°08' W 015°25'0 0.0
2016-Jun-26 06:32N 28°08' W 015°25'0 0.0
2016-Jun-26 05:32N 28°08' W 015°25'0 0.0
2016-Jun-26 04:32N 28°08' W 015°25'0 0.0
2016-Jun-26 03:32N 28°08' W 015°25'0 0.0
2016-Jun-26 02:32N 28°08' W 015°25'0 0.0
2016-Jun-26 01:32N 28°08' W 015°25'0 0.0
2016-Jun-26 00:32N 28°08' W 015°25'0 0.0
2016-Jun-25 23:32N 28°08' W 015°25'0 0.0
2016-Jun-25 22:32N 28°08' W 015°25'0 0.0
2016-Jun-25 21:32N 28°08' W 015°25'0 0.0
2016-Jun-25 20:32N 28°08' W 015°25'0 0.0
2016-Jun-25 19:32N 28°08' W 015°25'0 0.0
2016-Jun-25 18:32N 28°08' W 015°25'0 0.0
2016-Jun-25 17:32N 28°08' W 015°25'0 0.0
2016-Jun-25 16:33N 28°08' W 015°25'8614.2
2016-Jun-25 10:31N 28°24' W 013°49'6 1.4
2016-Jun-25 06:20N 28°30' W 013°51'4 4.6
2016-Jun-25 05:33N 28°27' W 013°49'1514.5
2016-Jun-25 04:33N 28°13' W 013°55'1615.8
2016-Jun-25 03:33N 28°05' W 014°10'4414.6
2016-Jun-25 00:31N 28°04' W 015°01'1515.4
2016-Jun-24 23:33N 28°07' W 015°17'7 6.9
2016-Jun-24 22:34N 28°08' W 015°25'0 0.0
2016-Jun-24 21:30N 28°08' W 015°25'0 0.0
2016-Jun-24 20:33N 28°08' W 015°25'0 0.0
2016-Jun-24 19:33N 28°08' W 015°25'0 0.0
2016-Jun-24 18:33N 28°08' W 015°25'0 0.0
2016-Jun-24 17:33N 28°08' W 015°25'0 0.2
2016-Jun-24 16:34N 28°08' W 015°25'1413.7
2016-Jun-24 15:33N 28°06' W 015°09'8 0.5
2016-Jun-23 23:33N 28°06' W 015°18'6 6.2
2016-Jun-23 22:34N 28°08' W 015°25'0 0.0
2016-Jun-23 21:33N 28°08' W 015°25'0 0.0
2016-Jun-23 20:27N 28°08' W 015°25'0 0.0
2016-Jun-23 19:33N 28°08' W 015°25'0 0.0
2016-Jun-23 18:33N 28°08' W 015°25'0 0.0
2016-Jun-23 17:33N 28°08' W 015°25'1 1.2
2016-Jun-23 16:34N 28°07' W 015°24'1615.7
2016-Jun-23 15:33N 28°05' W 015°07'56 5.6
2016-Jun-23 05:31N 28°09' W 014°03'1615.7
2016-Jun-23 04:31N 28°01' W 014°18'1915.2
2016-Jun-23 03:15N 28°02' W 014°40'1014.8
2016-Jun-23 02:33N 28°03' W 014°52'1515.0
2016-Jun-23 01:33N 28°05' W 015°09'1414.3
2016-Jun-23 00:33N 28°08' W 015°24'1 0.7
2016-Jun-22 23:33N 28°08' W 015°25'0 0.0
2016-Jun-22 22:33N 28°08' W 015°25'0 0.0
2016-Jun-22 21:33N 28°08' W 015°25'0 0.0
2016-Jun-22 20:33N 28°08' W 015°25'0 0.0
2016-Jun-22 19:33N 28°08' W 015°25'0 0.0
2016-Jun-22 18:30N 28°08' W 015°25'0 0.0
2016-Jun-22 17:33N 28°08' W 015°25'0 0.0
2016-Jun-22 16:33N 28°08' W 015°25'1312.9
2016-Jun-22 15:33N 28°06' W 015°10'1615.9
2016-Jun-22 14:33N 28°04' W 014°53'1616.2
2016-Jun-22 13:33N 28°02' W 014°34'1615.9
2016-Jun-22 12:32N 28°03' W 014°16'24 3.0
2016-Jun-22 04:31N 28°15' W 013°53'1515.2
2016-Jun-22 03:33N 28°07' W 014°07'1914.9
2016-Jun-22 02:16N 28°01' W 014°28'1014.7
2016-Jun-22 01:33N 28°02' W 014°40'1515.2
2016-Jun-22 00:33N 28°04' W 014°57'1515.2
2016-Jun-21 23:33N 28°06' W 015°14'1010.1
2016-Jun-21 22:34N 28°08' W 015°25'0 0.0
2016-Jun-21 21:31N 28°08' W 015°25'0 0.0
2016-Jun-21 20:31N 28°08' W 015°25'0 0.0
2016-Jun-21 19:31N 28°08' W 015°25'0 0.0
2016-Jun-21 18:31N 28°08' W 015°25'0 0.0
2016-Jun-21 17:31N 28°08' W 015°25'1 1.2
2016-Jun-21 16:34N 28°07' W 015°24'1515.4
2016-Jun-21 15:33N 28°05' W 015°07'1615.8
2016-Jun-21 14:33N 28°04' W 014°49'1616.4
2016-Jun-21 13:33N 28°02' W 014°31'1615.8
2016-Jun-21 12:33N 28°04' W 014°13'1616.1
2016-Jun-21 11:33N 28°12' W 013°57'1615.5
2016-Jun-21 10:33N 28°26' W 013°50'4 1.9
2016-Jun-21 08:31N 28°30' W 013°51'21 5.4
2016-Jun-21 04:33N 28°10' W 014°01'1515.5
2016-Jun-21 03:33N 28°03' W 014°16'1814.7
2016-Jun-21 02:21N 28°02' W 014°36'1215.2
2016-Jun-21 01:33N 28°03' W 014°50'1515.1
2016-Jun-21 00:33N 28°05' W 015°07'1514.8
2016-Jun-20 23:33N 28°07' W 015°24'2 1.6
2016-Jun-20 22:33N 28°08' W 015°25'0 0.0
2016-Jun-20 21:33N 28°08' W 015°25'0 0.0
2016-Jun-20 20:24N 28°08' W 015°25'0 0.0
2016-Jun-20 19:33N 28°08' W 015°25'0 0.0
2016-Jun-20 18:27N 28°08' W 015°25'0 0.0
2016-Jun-20 17:27N 28°08' W 015°25'0 0.0
2016-Jun-20 16:27N 28°08' W 015°25'0 0.0
2016-Jun-20 15:30N 28°08' W 015°25'0 0.0
2016-Jun-20 14:30N 28°08' W 015°25'0 0.0
2016-Jun-20 13:30N 28°08' W 015°25'0 0.0
2016-Jun-20 12:33N 28°08' W 015°25'0 0.0
2016-Jun-20 11:33N 28°08' W 015°25'0 0.0
2016-Jun-20 10:31N 28°08' W 015°25'0 0.0
2016-Jun-20 09:22N 28°08' W 015°25'0 0.0
2016-Jun-20 08:31N 28°08' W 015°25'0 0.0
2016-Jun-20 07:25N 28°08' W 015°25'0 0.0
2016-Jun-20 06:25N 28°08' W 015°25'  

Dump ship's entire track history